CheckWX is a tool to help pilots better visualize weather data.  It is not intended as a substitute for an official pre-flight weather briefing.

22:37:17 UTC

KPNE METAR
Northeast Philadelphia Airport
Philadelphia, Pennsylvania, USA
Current

43 mins ago

KPNE 082154Z 02005KT 10SM SCT070 BKN090 BKN110 19/13 A2959 RMK AO2 RAE33 SLP018 P0002 T01940128
Observed
Apr-8 @ 21:54 UTC
Wind
  • 020° at 5 KTS
Visibility
Flight Rules
VFR
Cloud Levels
  • Scattered at 7,000' AGL
  • Broken at 9,000' AGL
  • Broken at 11,000' AGL
Temperature
19°C / 66°F
Dewpoint
13°C / 55°F
Humidity
68%
Altimeter
29.59" Hg
Pressure
1002.02 hPa
Current Rain
0.02"
Previous

2 hours ago

KPNE 082054Z 02009G20KT 6SM RA BKN060 OVC080 19/12 A2956 RMK AO2 RAB47 SLP008 P0001 60001 T01890122 55004
Observed
Apr-8 @ 20:54 UTC
Wind
  • 020° at 9 KTS
  • Gusting to 20 KTS
Visibility
Flight Rules
VFR
Conditions
Rain
Cloud Levels
  • Broken at 6,000' AGL
  • Overcast at 8,000' AGL
Temperature
19°C / 66°F
Dewpoint
12°C / 54°F
Humidity
64%
Altimeter
29.56" Hg
Pressure
1001.02 hPa
Current Rain
0.01"
Previous

3 hours ago

KPNE 081954Z 32006G16KT 10SM FEW070 BKN085 23/09 A2955 RMK AO2 SLP006 T02280089
Observed
Apr-8 @ 19:54 UTC
Wind
  • 320° at 6 KTS
  • Gusting to 16 KTS
Visibility
Flight Rules
VFR
Cloud Levels
  • Few at 7,000' AGL
  • Broken at 8,500' AGL
Temperature
23°C / 73°F
Dewpoint
C / 48°F
Humidity
41%
Altimeter
29.55" Hg
Pressure
1000.72 hPa